createdAt,value
2019-02-28T00:00:40.637Z,66.02
2019-02-28T00:01:38.990Z,65.54
2019-02-28T00:02:38.984Z,64.11
2019-02-28T00:03:39.017Z,64.15
2019-02-28T00:04:38.976Z,62.81
2019-02-28T00:05:39.136Z,60.91
2019-02-28T00:06:38.976Z,61.22
2019-02-28T00:07:38.973Z,60.37
2019-02-28T00:08:39.009Z,60.08
2019-02-28T00:09:38.968Z,59.80
2019-02-28T00:10:38.969Z,59.32
2019-02-28T00:11:39.495Z,58.65
2019-02-28T00:12:38.965Z,58.37
2019-02-28T00:13:38.996Z,58.47
2019-02-28T00:14:38.961Z,58.69
2019-02-28T00:15:38.959Z,58.21
2019-02-28T00:16:38.957Z,57.64
2019-02-28T00:17:42.493Z,57.35
2019-02-28T00:18:38.991Z,57.73
2019-02-28T00:19:38.953Z,57.07
2019-02-28T00:20:38.954Z,57.54
2019-02-28T00:21:40.537Z,57.64
2019-02-28T00:22:38.952Z,56.78
2019-02-28T00:23:38.982Z,56.87
2019-02-28T00:24:38.946Z,56.04
2019-02-28T00:25:38.947Z,56.52
2019-02-28T00:26:38.944Z,56.02
2019-02-28T00:27:38.941Z,56.11
2019-02-28T00:28:38.972Z,56.49
2019-02-28T00:29:38.950Z,56.68
2019-02-28T00:30:40.811Z,56.97
2019-02-28T00:31:38.937Z,57.45
2019-02-28T00:32:38.933Z,57.26
2019-02-28T00:33:38.970Z,56.87
2019-02-28T00:34:39.189Z,57.54
2019-02-28T00:35:38.934Z,57.60
2019-02-28T00:36:38.933Z,57.80
2019-02-28T00:37:38.930Z,57.89
2019-02-28T00:38:38.965Z,57.26
2019-02-28T00:39:38.933Z,57.89
2019-02-28T00:40:39.260Z,57.54
2019-02-28T00:41:43.095Z,57.60
2019-02-28T00:42:38.929Z,57.45
2019-02-28T00:43:38.958Z,57.64
2019-02-28T00:44:38.922Z,57.54
2019-02-28T00:45:38.921Z,56.87
2019-02-28T00:46:44.050Z,57.16
2019-02-28T00:47:38.914Z,57.51
2019-02-28T00:48:38.959Z,57.99
2019-02-28T00:49:38.919Z,58.18
2019-02-28T00:50:38.920Z,58.47
2019-02-28T00:51:38.915Z,59.13
2019-02-28T00:52:38.914Z,59.51
2019-02-28T00:53:38.958Z,59.23
2019-02-28T00:54:43.130Z,58.28
2019-02-28T00:55:38.911Z,57.89
2019-02-28T00:56:38.914Z,58.08
2019-02-28T00:57:38.907Z,58.37
2019-02-28T00:58:38.944Z,58.28
2019-02-28T00:59:38.916Z,59.13
2019-02-28T01:00:38.903Z,58.84
2019-02-28T01:01:38.902Z,57.99
2019-02-28T01:02:38.903Z,57.60
2019-02-28T01:03:38.936Z,58.37
2019-02-28T01:04:38.905Z,58.56
2019-02-28T01:05:38.900Z,58.47
2019-02-28T01:06:41.740Z,57.89
2019-02-28T01:07:38.901Z,58.28
2019-02-28T01:08:38.935Z,57.89
2019-02-28T01:09:38.901Z,57.80
2019-02-28T01:10:39.967Z,57.89
2019-02-28T01:11:38.891Z,58.08
2019-02-28T01:12:38.892Z,57.82
2019-02-28T01:13:38.922Z,58.02
2019-02-28T01:14:38.887Z,58.28
2019-02-28T01:15:44.429Z,58.75
2019-02-28T01:16:38.888Z,57.99
2019-02-28T01:17:38.887Z,58.65
2019-02-28T01:18:38.919Z,59.03
2019-02-28T01:19:41.298Z,58.94
2019-02-28T01:20:38.883Z,59.23
2019-02-28T01:21:38.892Z,59.51
2019-02-28T01:22:38.882Z,59.03
2019-02-28T01:23:38.917Z,60.27
2019-02-28T01:24:38.876Z,59.70
2019-02-28T01:25:40.250Z,60.08
2019-02-28T01:26:38.878Z,59.70
2019-02-28T01:27:38.874Z,60.37
2019-02-28T01:28:38.904Z,59.89
2019-02-28T01:29:38.867Z,60.37
2019-02-28T01:30:40.474Z,60.37
2019-02-28T01:31:38.867Z,60.18
2019-02-28T01:32:38.862Z,60.27
2019-02-28T01:33:38.899Z,60.56
2019-02-28T01:34:38.864Z,62.15
2019-02-28T01:35:40.888Z,62.05
2019-02-28T01:36:38.863Z,61.86
2019-02-28T01:37:38.866Z,61.77
2019-02-28T01:38:38.903Z,61.48
2019-02-28T01:39:38.856Z,60.94
2019-02-28T01:40:38.859Z,61.42
2019-02-28T01:41:38.852Z,61.04
2019-02-28T01:42:38.853Z,61.04
2019-02-28T01:43:38.887Z,60.85
2019-02-28T01:44:38.846Z,61.04
2019-02-28T01:45:43.441Z,61.70
2019-02-28T01:46:38.851Z,61.80
2019-02-28T01:47:38.844Z,61.90
2019-02-28T01:48:38.881Z,61.80
2019-02-28T01:49:38.846Z,61.90
2019-02-28T01:50:38.845Z,62.81
2019-02-28T01:51:38.839Z,63.29
2019-02-28T01:52:44.527Z,63.20
2019-02-28T01:53:38.870Z,63.57
2019-02-28T01:54:38.836Z,63.48
2019-02-28T01:55:38.831Z,63.48
2019-02-28T01:56:38.832Z,63.67
2019-02-28T01:57:42.328Z,63.76
2019-02-28T01:58:38.829Z,64.43
2019-02-28T01:59:38.868Z,64.72
2019-02-28T02:00:39.401Z,65.73
2019-02-28T02:01:38.824Z,67.92
2019-02-28T02:02:39.148Z,68.59
2019-02-28T02:03:40.700Z,69.88
2019-02-28T02:04:38.855Z,70.54
2019-02-28T02:05:38.825Z,70.17
2019-02-28T02:06:38.817Z,70.93
2019-02-28T02:07:38.815Z,70.83
2019-02-28T02:08:38.812Z,71.78
2019-02-28T02:09:38.849Z,71.78
2019-02-28T02:10:38.810Z,72.51
2019-02-28T02:11:38.808Z,72.70
2019-02-28T02:12:38.806Z,73.36
2019-02-28T02:13:38.804Z,73.93
2019-02-28T02:14:38.837Z,74.12
2019-02-28T02:15:38.800Z,74.88
2019-02-28T02:16:38.802Z,74.88
2019-02-28T02:17:38.797Z,75.32
2019-02-28T02:18:40.267Z,74.85
2019-02-28T02:19:38.829Z,74.47
2019-02-28T02:20:39.553Z,72.95
2019-02-28T02:21:38.789Z,72.47
2019-02-28T02:22:40.729Z,72.00
2019-02-28T02:23:38.784Z,72.75
2019-02-28T02:24:38.816Z,72.75
2019-02-28T02:25:38.780Z,72.91
2019-02-28T02:26:38.781Z,72.95
2019-02-28T02:27:38.783Z,73.76
2019-02-28T02:28:38.773Z,73.48
2019-02-28T02:29:38.808Z,74.71
2019-02-28T02:30:38.774Z,75.28
2019-02-28T02:31:38.769Z,75.28
2019-02-28T02:32:38.924Z,75.81
2019-02-28T02:33:38.762Z,77.81
2019-02-28T02:34:38.801Z,79.71
2019-02-28T02:35:42.314Z,79.90
2019-02-28T02:36:38.757Z,82.04
2019-02-28T02:37:38.754Z,82.79
2019-02-28T02:38:41.567Z,84.31
2019-02-28T02:39:38.786Z,84.78
2019-02-28T02:40:38.745Z,83.94
2019-02-28T02:41:38.751Z,83.36
2019-02-28T02:42:38.743Z,83.08
2019-02-28T02:43:38.742Z,82.23
2019-02-28T02:44:38.772Z,82.04
2019-02-28T02:45:43.276Z,82.42
2019-02-28T02:46:38.729Z,82.79
2019-02-28T02:47:38.727Z,82.32
2019-02-28T02:48:42.343Z,82.98
2019-02-28T02:49:38.722Z,83.17
2019-02-28T02:50:38.758Z,82.79
2019-02-28T02:51:38.714Z,83.65
2019-02-28T02:52:38.714Z,84.12
2019-02-28T02:53:42.034Z,85.03
2019-02-28T02:54:38.705Z,85.78
2019-02-28T02:55:38.734Z,88.44
2019-02-28T02:56:41.904Z,88.54
2019-02-28T02:57:38.693Z,87.59
2019-02-28T02:58:38.699Z,88.25
2019-02-28T02:59:39.461Z,87.97
2019-02-28T03:00:38.732Z,87.97
2019-02-28T03:01:38.683Z,87.97
2019-02-28T03:02:38.683Z,87.68
2019-02-28T03:03:42.700Z,87.59
2019-02-28T03:04:38.669Z,86.97
2019-02-28T03:05:38.701Z,86.59
2019-02-28T03:06:38.667Z,86.40
2019-02-28T03:07:38.662Z,86.30
2019-02-28T03:08:38.660Z,86.40
2019-02-28T03:09:43.389Z,86.11
2019-02-28T03:10:38.691Z,86.02
2019-02-28T03:11:38.647Z,85.83
2019-02-28T03:12:38.641Z,86.16
2019-02-28T03:13:43.590Z,85.83
2019-02-28T03:14:38.638Z,85.55
2019-02-28T03:15:38.639Z,85.17
2019-02-28T03:16:38.674Z,84.69
2019-02-28T03:17:38.633Z,84.41
2019-02-28T03:18:38.623Z,84.41
2019-02-28T03:19:38.635Z,83.94
2019-02-28T03:20:41.356Z,84.03
2019-02-28T03:21:38.652Z,83.36
2019-02-28T03:22:38.637Z,83.17
2019-02-28T03:23:40.502Z,83.17
2019-02-28T03:24:38.602Z,83.36
2019-02-28T03:25:38.607Z,83.03
2019-02-28T03:26:41.866Z,82.74
2019-02-28T03:27:38.600Z,82.27
2019-02-28T03:28:38.624Z,82.36
2019-02-28T03:29:43.327Z,82.36
2019-02-28T03:30:38.581Z,81.32
2019-02-28T03:31:38.577Z,81.23
2019-02-28T03:32:41.873Z,81.23
2019-02-28T03:33:38.574Z,82.17
2019-02-28T03:34:38.575Z,82.17
2019-02-28T03:35:43.133Z,82.74
2019-02-28T03:36:38.559Z,82.17
2019-02-28T03:37:38.588Z,82.93
2019-02-28T03:38:38.531Z,83.36
2019-02-28T03:39:38.561Z,83.94
2019-02-28T03:40:40.183Z,84.31
2019-02-28T03:41:38.523Z,85.26
2019-02-28T03:42:38.549Z,85.64
2019-02-28T03:43:43.996Z,86.02
2019-02-28T03:44:38.522Z,87.06
2019-02-28T03:45:38.506Z,87.92
2019-02-28T03:46:38.511Z,88.10
2019-02-28T03:47:38.528Z,87.87
2019-02-28T03:48:38.495Z,88.82
2019-02-28T03:49:38.541Z,89.39
2019-02-28T03:50:38.509Z,90.05
2019-02-28T03:51:38.485Z,90.05
2019-02-28T03:52:42.893Z,90.34
2019-02-28T03:53:38.480Z,90.48
2019-02-28T03:54:38.503Z,90.67
2019-02-28T03:55:40.820Z,90.81
2019-02-28T03:56:38.471Z,90.91
2019-02-28T03:57:38.469Z,90.91
2019-02-28T03:58:42.839Z,91.05
2019-02-28T03:59:38.483Z,91.28
2019-02-28T04:00:38.451Z,91.14
2019-02-28T04:01:44.738Z,90.57
2019-02-28T04:02:38.442Z,89.91
2019-02-28T04:03:38.439Z,88.96
2019-02-28T04:04:38.511Z,88.87
2019-02-28T04:05:38.434Z,88.39
2019-02-28T04:06:40.771Z,87.73
2019-02-28T04:07:38.421Z,86.35
2019-02-28T04:08:38.434Z,86.07
2019-02-28T04:09:43.733Z,86.07
2019-02-28T04:10:38.426Z,86.07
2019-02-28T04:11:38.420Z,85.02
2019-02-28T04:12:45.099Z,83.07
2019-02-28T04:13:38.408Z,83.83
2019-02-28T04:14:38.428Z,83.36
2019-02-28T04:15:38.431Z,83.22
2019-02-28T04:16:38.400Z,82.93
2019-02-28T04:17:38.393Z,83.03
2019-02-28T04:18:44.354Z,84.26
2019-02-28T04:19:38.426Z,83.97
2019-02-28T04:20:38.482Z,84.07
2019-02-28T04:21:38.379Z,84.64
2019-02-28T04:22:38.372Z,84.74
2019-02-28T04:23:38.368Z,84.92
2019-02-28T04:24:38.362Z,86.44
2019-02-28T04:25:38.411Z,86.21
2019-02-28T04:26:38.365Z,86.59
2019-02-28T04:27:40.492Z,88.10
2019-02-28T04:28:38.350Z,92.09
2019-02-28T04:29:38.402Z,94.98
2019-02-28T04:30:42.248Z,96.78
2019-02-28T04:31:38.344Z,98.21
2019-02-28T04:32:38.356Z,99.10
2019-02-28T04:33:39.351Z,99.67
2019-02-28T04:34:38.369Z,99.99
2019-02-28T04:35:38.327Z,99.99
2019-02-28T04:36:38.325Z,99.99
2019-02-28T04:37:44.804Z,99.99
2019-02-28T04:38:38.324Z,99.99
2019-02-28T04:39:38.341Z,99.99
2019-02-28T04:40:38.345Z,99.99
2019-02-28T04:41:38.314Z,99.99
2019-02-28T04:42:38.299Z,99.99
2019-02-28T04:43:38.300Z,99.99
2019-02-28T04:44:38.295Z,99.99
2019-02-28T04:45:38.327Z,99.99
2019-02-28T04:46:38.282Z,99.99
2019-02-28T04:47:40.653Z,99.99
2019-02-28T04:48:38.274Z,99.99
2019-02-28T04:49:38.312Z,99.99
2019-02-28T04:50:38.272Z,99.99
2019-02-28T04:51:40.131Z,99.99
2019-02-28T04:52:38.277Z,99.99
2019-02-28T04:53:38.258Z,99.99
2019-02-28T04:54:38.283Z,99.99
2019-02-28T04:55:38.285Z,99.99
2019-02-28T04:56:38.253Z,99.99
2019-02-28T04:57:38.239Z,99.99
2019-02-28T04:58:38.243Z,99.99
2019-02-28T04:59:38.230Z,99.99
2019-02-28T05:00:38.890Z,99.99
2019-02-28T05:01:38.235Z,99.99
2019-02-28T05:02:38.215Z,99.99
2019-02-28T05:03:38.214Z,99.99
2019-02-28T05:04:38.885Z,99.99
2019-02-28T05:05:38.235Z,99.99
2019-02-28T05:06:38.247Z,99.99
2019-02-28T05:07:38.195Z,99.99
2019-02-28T05:08:38.933Z,99.99
2019-02-28T05:09:38.197Z,99.99
2019-02-28T05:10:38.219Z,99.99
2019-02-28T05:11:38.180Z,99.99
2019-02-28T05:12:39.985Z,99.99
2019-02-28T05:13:38.174Z,99.91
2019-02-28T05:14:38.172Z,99.91
2019-02-28T05:15:40.934Z,98.96
2019-02-28T05:16:38.156Z,98.77
2019-02-28T05:17:38.149Z,98.49
2019-02-28T05:18:38.162Z,99.25
2019-02-28T05:19:38.144Z,99.06
2019-02-28T05:20:38.172Z,99.63
2019-02-28T05:21:38.181Z,99.99
2019-02-28T05:22:38.140Z,99.99
2019-02-28T05:23:38.136Z,99.99
2019-02-28T05:24:39.454Z,99.99
2019-02-28T05:25:38.155Z,99.99
2019-02-28T05:26:38.116Z,99.99
2019-02-28T05:27:38.117Z,99.99
2019-02-28T05:28:41.215Z,99.99
2019-02-28T05:29:38.154Z,99.99
2019-02-28T05:30:38.141Z,99.99
2019-02-28T05:31:38.100Z,99.99
2019-02-28T05:32:38.088Z,99.99
2019-02-28T05:33:38.390Z,99.99
2019-02-28T05:34:38.086Z,99.99
2019-02-28T05:35:38.122Z,99.99
2019-02-28T05:36:38.817Z,99.99
2019-02-28T05:37:38.069Z,99.99
2019-02-28T05:38:38.064Z,99.99
2019-02-28T05:39:38.066Z,99.99
2019-02-28T05:40:41.319Z,99.99
2019-02-28T05:41:38.058Z,99.99
2019-02-28T05:42:38.049Z,99.99
2019-02-28T05:43:38.042Z,99.99
2019-02-28T05:44:40.419Z,99.99
2019-02-28T05:45:38.083Z,99.99
2019-02-28T05:46:38.041Z,99.99
2019-02-28T05:47:46.328Z,99.99
2019-02-28T05:48:38.697Z,99.99
2019-02-28T05:49:40.667Z,99.99
2019-02-28T05:50:38.049Z,99.99
2019-02-28T05:51:38.018Z,99.99
2019-02-28T05:52:38.017Z,99.99
2019-02-28T05:53:41.323Z,99.99
2019-02-28T05:54:38.001Z,99.99
2019-02-28T05:55:38.033Z,99.99
2019-02-28T05:56:38.035Z,99.99
2019-02-28T05:57:39.383Z,99.99
2019-02-28T05:58:37.985Z,99.99
2019-02-28T05:59:37.982Z,99.99
2019-02-28T06:00:38.015Z,99.99
2019-02-28T06:01:37.963Z,99.99
2019-02-28T06:02:37.965Z,99.99
2019-02-28T06:03:37.964Z,99.99
2019-02-28T06:04:37.953Z,99.99
2019-02-28T06:05:38.976Z,99.99
2019-02-28T06:06:37.950Z,99.99
2019-02-28T06:07:37.943Z,99.99
2019-02-28T06:08:39.197Z,99.99
2019-02-28T06:09:37.936Z,99.99
2019-02-28T06:10:37.968Z,99.99
2019-02-28T06:11:37.932Z,99.99
2019-02-28T06:12:40.406Z,99.99
2019-02-28T06:13:37.919Z,99.99
2019-02-28T06:14:37.910Z,99.99
2019-02-28T06:15:37.939Z,99.99
2019-02-28T06:16:37.943Z,99.99
2019-02-28T06:17:37.904Z,99.99
2019-02-28T06:18:37.898Z,99.99
2019-02-28T06:19:40.233Z,99.99
2019-02-28T06:20:37.892Z,99.99
2019-02-28T06:21:37.937Z,99.99
2019-02-28T06:22:37.885Z,99.99
2019-02-28T06:23:40.707Z,99.99
2019-02-28T06:24:37.870Z,99.99
2019-02-28T06:25:37.863Z,99.99
2019-02-28T06:26:37.901Z,99.99
2019-02-28T06:27:41.702Z,99.99
2019-02-28T06:28:37.867Z,99.99
2019-02-28T06:29:37.848Z,99.99
2019-02-28T06:30:41.458Z,99.99
2019-02-28T06:31:37.842Z,99.99
2019-02-28T06:32:37.882Z,99.99
2019-02-28T06:33:37.833Z,99.99
2019-02-28T06:34:39.471Z,99.99
2019-02-28T06:35:37.831Z,99.99
2019-02-28T06:36:37.863Z,99.99
2019-02-28T06:37:38.377Z,99.99
2019-02-28T06:38:37.813Z,99.99
2019-02-28T06:39:37.816Z,99.99
2019-02-28T06:40:37.810Z,99.99
2019-02-28T06:41:39.835Z,99.99
2019-02-28T06:42:37.802Z,99.99
2019-02-28T06:43:37.788Z,99.99
2019-02-28T06:44:37.795Z,99.99
2019-02-28T06:45:37.856Z,99.99
2019-02-28T06:46:39.763Z,99.99
2019-02-28T06:47:39.031Z,99.99
2019-02-28T06:48:37.772Z,99.99
2019-02-28T06:49:41.841Z,99.99
2019-02-28T06:50:37.803Z,98.73
2019-02-28T06:51:37.796Z,97.07
2019-02-28T06:52:37.760Z,94.84
2019-02-28T06:53:37.752Z,92.46
2019-02-28T06:54:39.905Z,90.52
2019-02-28T06:55:37.753Z,88.61
2019-02-28T06:56:37.786Z,86.47
2019-02-28T06:57:37.740Z,85.61
2019-02-28T06:58:37.749Z,84.42
2019-02-28T06:59:39.131Z,83.28
2019-02-28T07:00:37.746Z,82.80
2019-02-28T07:01:37.772Z,83.09
2019-02-28T07:02:37.743Z,82.61
2019-02-28T07:03:39.032Z,82.32
2019-02-28T07:04:37.731Z,81.41
2019-02-28T07:05:37.724Z,80.55
2019-02-28T07:06:37.766Z,80.08
2019-02-28T07:07:37.724Z,79.60
2019-02-28T07:08:37.729Z,79.07
2019-02-28T07:09:37.726Z,78.59
2019-02-28T07:10:37.728Z,78.98
2019-02-28T07:11:37.749Z,77.83
2019-02-28T07:12:37.720Z,77.64
2019-02-28T07:13:39.989Z,77.20
2019-02-28T07:14:37.726Z,76.54
2019-02-28T07:15:37.728Z,76.64
2019-02-28T07:16:38.067Z,76.44
2019-02-28T07:17:37.722Z,75.68
2019-02-28T07:18:37.729Z,75.40
2019-02-28T07:19:37.726Z,75.43
2019-02-28T07:20:37.720Z,74.96
2019-02-28T07:21:42.977Z,74.35
2019-02-28T07:22:39.963Z,74.10
2019-02-28T07:23:37.723Z,74.48
2019-02-28T07:24:38.274Z,74.19
2019-02-28T07:25:37.722Z,74.10
2019-02-28T07:26:37.731Z,74.29
2019-02-28T07:27:37.769Z,74.13
2019-02-28T07:28:37.834Z,73.37
2019-02-28T07:29:37.725Z,73.56
2019-02-28T07:30:37.731Z,73.03
2019-02-28T07:31:37.734Z,72.74
2019-02-28T07:32:37.770Z,72.01
2019-02-28T07:33:37.743Z,72.20
2019-02-28T07:34:37.745Z,72.49
2019-02-28T07:35:37.740Z,72.87
2019-02-28T07:36:37.740Z,72.78
2019-02-28T07:37:37.780Z,71.15
2019-02-28T07:38:37.744Z,70.20
2019-02-28T07:39:40.376Z,69.56
2019-02-28T07:40:37.754Z,68.51
2019-02-28T07:41:37.778Z,67.94
2019-02-28T07:42:38.627Z,69.47
2019-02-28T07:43:37.867Z,69.76
2019-02-28T07:44:38.075Z,69.24
2019-02-28T07:45:37.768Z,68.19
2019-02-28T07:46:38.674Z,69.43
2019-02-28T07:47:37.812Z,70.29
2019-02-28T07:48:37.777Z,69.91
2019-02-28T07:49:37.778Z,69.59
2019-02-28T07:50:37.778Z,69.11
2019-02-28T07:51:37.781Z,69.40
2019-02-28T07:52:37.821Z,69.97
2019-02-28T07:53:40.918Z,70.77
2019-02-28T07:54:37.796Z,70.01
2019-02-28T07:55:37.796Z,69.72
2019-02-28T07:56:42.495Z,69.56
2019-02-28T07:57:37.804Z,68.51
2019-02-28T07:58:37.852Z,67.46
2019-02-28T07:59:42.401Z,67.02
2019-02-28T08:00:37.823Z,66.70
2019-02-28T08:01:37.828Z,66.13
2019-02-28T08:02:39.220Z,66.13
2019-02-28T08:03:37.834Z,65.68
2019-02-28T08:04:37.879Z,65.07
2019-02-28T08:05:37.838Z,65.97
2019-02-28T08:06:39.197Z,65.87
2019-02-28T08:07:37.887Z,65.97
2019-02-28T08:08:37.864Z,66.16
2019-02-28T08:09:40.688Z,65.39
2019-02-28T08:10:37.861Z,65.48
2019-02-28T08:11:37.908Z,65.77
2019-02-28T08:12:37.906Z,66.03
2019-02-28T08:13:38.639Z,66.63
2019-02-28T08:14:37.881Z,67.49
2019-02-28T08:15:37.885Z,67.69
2019-02-28T08:16:37.889Z,68.77
2019-02-28T08:17:40.692Z,67.82
2019-02-28T08:18:37.911Z,66.19
2019-02-28T08:19:37.915Z,66.96
2019-02-28T08:20:37.919Z,67.05
2019-02-28T08:21:43.554Z,68.13
2019-02-28T08:22:37.962Z,68.29
2019-02-28T08:23:37.968Z,68.13
2019-02-28T08:24:37.943Z,67.37
2019-02-28T08:25:39.613Z,67.66
2019-02-28T08:26:37.959Z,66.89
2019-02-28T08:27:37.993Z,67.18
2019-02-28T08:28:37.967Z,67.66
2019-02-28T08:29:37.971Z,68.62
2019-02-28T08:30:37.979Z,68.13
2019-02-28T08:31:37.985Z,67.47
2019-02-28T08:32:42.683Z,66.89
2019-02-28T08:33:38.028Z,66.41
2019-02-28T08:34:38.004Z,66.41
2019-02-28T08:35:38.010Z,65.84
2019-02-28T08:36:38.055Z,66.70
2019-02-28T08:37:38.020Z,67.21
2019-02-28T08:38:38.060Z,65.94
2019-02-28T08:39:41.200Z,65.88
2019-02-28T08:40:38.047Z,65.55
2019-02-28T08:41:38.053Z,65.65
2019-02-28T08:42:39.660Z,65.36
2019-02-28T08:43:38.097Z,65.39
2019-02-28T08:44:38.073Z,64.72
2019-02-28T08:45:38.080Z,64.59
2019-02-28T08:46:38.086Z,64.79
2019-02-28T08:47:38.089Z,64.82
2019-02-28T08:48:38.131Z,64.69
2019-02-28T08:49:41.883Z,64.34
2019-02-28T08:50:38.113Z,64.25
2019-02-28T08:51:38.124Z,64.40
2019-02-28T08:52:41.024Z,64.43
2019-02-28T08:53:38.176Z,64.53
2019-02-28T08:54:38.147Z,64.18
2019-02-28T08:55:39.443Z,65.33
2019-02-28T08:56:38.158Z,64.47
2019-02-28T08:57:38.165Z,64.37
2019-02-28T08:58:38.497Z,64.28
2019-02-28T08:59:38.214Z,64.18
2019-02-28T09:00:38.196Z,64.40
2019-02-28T09:01:41.323Z,64.31
2019-02-28T09:02:38.209Z,64.50
2019-02-28T09:03:38.245Z,64.31
2019-02-28T09:04:41.178Z,64.50
2019-02-28T09:05:38.258Z,63.73
2019-02-28T09:06:41.016Z,64.12
2019-02-28T09:07:38.246Z,63.92
2019-02-28T09:08:38.263Z,64.28
2019-02-28T09:09:38.264Z,65.71
2019-02-28T09:10:38.311Z,65.81
2019-02-28T09:11:38.321Z,65.65
2019-02-28T09:12:38.294Z,65.33
2019-02-28T09:13:40.001Z,64.37
2019-02-28T09:14:38.307Z,64.43
2019-02-28T09:15:38.318Z,64.43
2019-02-28T09:16:39.729Z,65.30
2019-02-28T09:17:38.336Z,65.88
2019-02-28T09:18:38.383Z,65.39
2019-02-28T09:19:38.351Z,67.02
2019-02-28T09:20:41.282Z,67.21
2019-02-28T09:21:38.369Z,67.21
2019-02-28T09:22:38.386Z,68.11
2019-02-28T09:23:38.542Z,66.00
2019-02-28T09:24:38.437Z,66.35
2019-02-28T09:25:38.403Z,66.25
2019-02-28T09:26:38.417Z,66.19
2019-02-28T09:27:38.896Z,65.91
2019-02-28T09:28:38.458Z,66.77
2019-02-28T09:29:38.438Z,66.25
2019-02-28T09:30:38.497Z,66.96
2019-02-28T09:31:39.183Z,67.91
2019-02-28T09:32:38.475Z,68.11
2019-02-28T09:33:38.510Z,66.51
2019-02-28T09:34:38.487Z,66.89
2019-02-28T09:35:38.489Z,66.99
2019-02-28T09:36:38.548Z,66.74
2019-02-28T09:37:38.517Z,66.06
2019-02-28T09:38:38.548Z,64.50
2019-02-28T09:39:38.536Z,65.17
2019-02-28T09:40:38.542Z,66.13
2019-02-28T09:41:40.207Z,65.75
2019-02-28T09:42:38.594Z,66.32
2019-02-28T09:43:38.604Z,66.32
2019-02-28T09:44:38.695Z,65.94
2019-02-28T09:45:39.947Z,66.99
2019-02-28T09:46:38.602Z,66.89
2019-02-28T09:47:38.649Z,66.38
2019-02-28T09:48:38.617Z,66.86
2019-02-28T09:49:38.666Z,67.57
2019-02-28T09:50:38.634Z,67.57
2019-02-28T09:51:38.648Z,66.61
2019-02-28T09:52:41.614Z,67.12
2019-02-28T09:53:38.701Z,65.88
2019-02-28T09:54:38.701Z,65.81
2019-02-28T09:55:39.864Z,65.81
2019-02-28T09:56:41.145Z,65.49
2019-02-28T09:57:38.702Z,65.39
2019-02-28T09:58:38.752Z,65.91
2019-02-28T09:59:38.757Z,65.52
2019-02-28T10:00:38.738Z,65.43
2019-02-28T10:01:38.743Z,64.02
2019-02-28T10:02:40.429Z,64.40
2019-02-28T10:03:38.767Z,64.31
2019-02-28T10:04:38.821Z,64.89
2019-02-28T10:05:42.198Z,64.02
2019-02-28T10:06:38.806Z,63.06
2019-02-28T10:07:38.816Z,64.22
2019-02-28T10:08:38.818Z,63.83
2019-02-28T10:09:40.597Z,63.16
2019-02-28T10:10:38.842Z,63.25
2019-02-28T10:11:40.500Z,63.19
2019-02-28T10:12:42.057Z,62.81
2019-02-28T10:13:38.876Z,63.19
2019-02-28T10:14:38.931Z,63.02
2019-02-28T10:15:41.689Z,61.58
2019-02-28T10:16:38.921Z,61.46
2019-02-28T10:17:38.928Z,62.01
2019-02-28T10:18:39.685Z,62.71
2019-02-28T10:19:45.470Z,63.38
2019-02-28T10:20:38.965Z,62.42
2019-02-28T10:21:39.675Z,61.75
2019-02-28T10:22:38.990Z,61.65
2019-02-28T10:23:39.005Z,61.65
2019-02-28T10:24:39.040Z,60.88
2019-02-28T10:25:43.336Z,61.94
2019-02-28T10:26:39.807Z,61.46
2019-02-28T10:27:39.277Z,61.27
2019-02-28T10:28:39.072Z,61.36
2019-02-28T10:29:41.818Z,61.78
2019-02-28T10:30:40.180Z,61.40
2019-02-28T10:31:39.104Z,60.40
2019-02-28T10:32:40.330Z,60.72
2019-02-28T10:33:40.587Z,60.24
2019-02-28T10:34:39.395Z,60.24
2019-02-28T10:35:39.195Z,60.24
2019-02-28T10:36:39.175Z,60.66
2019-02-28T10:37:39.184Z,59.99
2019-02-28T10:38:39.196Z,59.99
2019-02-28T10:39:40.329Z,60.17
2019-02-28T10:40:39.229Z,58.06
2019-02-28T10:41:39.248Z,57.97
2019-02-28T10:42:40.347Z,58.54
2019-02-28T10:43:39.273Z,58.32
2019-02-28T10:44:39.318Z,59.60
2019-02-28T10:45:41.953Z,58.92
2019-02-28T10:46:39.309Z,59.50
2019-02-28T10:47:39.325Z,59.19
2019-02-28T10:48:50.514Z,59.69
2019-02-28T10:49:39.392Z,58.73
2019-02-28T10:50:39.369Z,58.64
2019-02-28T10:51:39.389Z,59.34
2019-02-28T10:52:39.398Z,58.54
2019-02-28T10:53:40.144Z,58.83
2019-02-28T10:54:39.453Z,59.19
2019-02-28T10:55:39.447Z,60.08
2019-02-28T10:56:39.450Z,59.79
2019-02-28T10:57:40.392Z,59.99
2019-02-28T10:58:39.491Z,59.79
2019-02-28T10:59:39.534Z,59.69
2019-02-28T11:00:39.505Z,59.22
2019-02-28T11:01:42.046Z,58.35
2019-02-28T11:02:39.539Z,58.73
2019-02-28T11:03:39.547Z,58.92
2019-02-28T11:04:43.735Z,58.25
2019-02-28T11:05:39.622Z,58.15
2019-02-28T11:06:39.590Z,58.47
2019-02-28T11:07:39.608Z,58.98
2019-02-28T11:08:39.624Z,58.86
2019-02-28T11:09:39.638Z,58.37
2019-02-28T11:10:39.684Z,57.42
2019-02-28T11:11:42.612Z,58.76
2019-02-28T11:12:39.680Z,58.18
2019-02-28T11:13:39.693Z,57.25
2019-02-28T11:14:39.700Z,56.48
2019-02-28T11:15:39.752Z,56.60
2019-02-28T11:16:39.768Z,55.65
2019-02-28T11:17:39.755Z,55.62
2019-02-28T11:18:41.863Z,55.65
2019-02-28T11:19:39.776Z,56.03
2019-02-28T11:20:39.793Z,56.77
2019-02-28T11:21:39.837Z,56.96
2019-02-28T11:22:40.993Z,56.87
2019-02-28T11:23:39.840Z,56.87
2019-02-28T11:24:39.889Z,56.38
2019-02-28T11:25:39.909Z,56.80
2019-02-28T11:26:41.335Z,54.78
2019-02-28T11:27:39.912Z,55.33
2019-02-28T11:28:39.953Z,56.58
2019-02-28T11:29:39.928Z,55.62
2019-02-28T11:30:44.001Z,55.43
2019-02-28T11:31:39.955Z,54.85
2019-02-28T11:32:39.978Z,55.23
2019-02-28T11:33:40.429Z,55.04
2019-02-28T11:34:40.003Z,55.65
2019-02-28T11:35:40.043Z,55.13
2019-02-28T11:36:40.031Z,55.62
2019-02-28T11:37:45.009Z,55.52
2019-02-28T11:38:40.130Z,56.29
2019-02-28T11:39:40.078Z,55.43
2019-02-28T11:40:40.383Z,55.81
2019-02-28T11:41:40.116Z,56.10
2019-02-28T11:42:40.121Z,55.71
2019-02-28T11:43:40.169Z,55.62
2019-02-28T11:44:40.184Z,55.59
2019-02-28T11:45:40.192Z,55.40
2019-02-28T11:46:40.207Z,55.94
2019-02-28T11:47:42.635Z,56.45
2019-02-28T11:48:40.212Z,56.45
2019-02-28T11:49:40.270Z,55.11
2019-02-28T11:50:42.444Z,55.20
2019-02-28T11:51:40.244Z,54.56
2019-02-28T11:52:40.261Z,53.69
2019-02-28T11:53:40.583Z,53.62
2019-02-28T11:54:40.293Z,53.33
2019-02-28T11:55:40.330Z,53.31
2019-02-28T11:56:40.313Z,53.11
2019-02-28T11:57:41.331Z,53.02
2019-02-28T11:58:40.352Z,53.88
2019-02-28T11:59:40.358Z,53.21
2019-02-28T12:00:40.405Z,54.08
2019-02-28T12:01:42.418Z,54.27
2019-02-28T12:02:40.399Z,53.62
2019-02-28T12:03:40.410Z,53.45
2019-02-28T12:04:42.145Z,52.78
2019-02-28T12:05:40.478Z,52.56
2019-02-28T12:06:40.454Z,53.14
2019-02-28T12:07:40.471Z,53.07
2019-02-28T12:08:41.484Z,52.56
2019-02-28T12:09:40.497Z,51.79
2019-02-28T12:10:40.560Z,52.56
2019-02-28T12:11:40.533Z,52.56
2019-02-28T12:12:41.525Z,52.37
2019-02-28T12:13:40.592Z,52.49
2019-02-28T12:14:40.581Z,52.49
2019-02-28T12:15:40.587Z,52.20
2019-02-28T12:16:40.634Z,52.01
2019-02-28T12:17:40.619Z,52.01
2019-02-28T12:18:40.990Z,52.59
2019-02-28T12:19:40.643Z,52.11
2019-02-28T12:20:40.661Z,50.85
2019-02-28T12:21:40.707Z,51.82
2019-02-28T12:22:44.028Z,51.62
2019-02-28T12:23:40.703Z,51.02
2019-02-28T12:24:40.721Z,52.08
2019-02-28T12:25:42.761Z,51.96
2019-02-28T12:26:40.790Z,53.11
2019-02-28T12:27:40.795Z,53.02
2019-02-28T12:28:40.773Z,52.99
2019-02-28T12:29:40.789Z,52.92
2019-02-28T12:30:40.805Z,53.78
2019-02-28T12:31:40.857Z,53.09
2019-02-28T12:32:43.459Z,54.14
2019-02-28T12:33:40.849Z,53.86
2019-02-28T12:34:40.860Z,53.96
2019-02-28T12:35:40.873Z,55.11
2019-02-28T12:36:40.928Z,55.08
2019-02-28T12:37:40.898Z,55.18
2019-02-28T12:38:40.907Z,54.89
2019-02-28T12:39:40.925Z,55.94
2019-02-28T12:40:42.499Z,55.56
2019-02-28T12:41:40.973Z,56.33
2019-02-28T12:42:41.000Z,55.44
2019-02-28T12:43:41.534Z,55.73
2019-02-28T12:44:40.977Z,56.11
2019-02-28T12:45:40.989Z,56.01
2019-02-28T12:46:41.042Z,56.49
2019-02-28T12:47:41.603Z,56.81
2019-02-28T12:48:41.032Z,56.93
2019-02-28T12:49:41.042Z,55.40
2019-02-28T12:50:41.041Z,53.96
2019-02-28T12:51:41.090Z,55.11
2019-02-28T12:52:41.075Z,55.23